sensor_id;sensor_type;location;lat;lon;timestamp;pressure;altitude;pressure_sealevel;temperature;humidity
48790;BME280;41718;51.980;5.734;2023-12-20T00:04:22;101455.19;;;5.31;100.00
48790;BME280;41718;51.980;5.734;2023-12-20T00:09:27;101459.06;;;5.41;100.00
48790;BME280;41718;51.980;5.734;2023-12-20T00:14:29;101452.88;;;5.43;100.00
48790;BME280;41718;51.980;5.734;2023-12-20T00:19:33;101449.31;;;5.44;100.00
48790;BME280;41718;51.980;5.734;2023-12-20T00:24:38;101445.34;;;5.36;100.00
48790;BME280;41718;51.980;5.734;2023-12-20T00:29:41;101443.25;;;5.25;100.00
48790;BME280;41718;51.980;5.734;2023-12-20T00:34:46;101449.19;;;5.29;100.00
48790;BME280;41718;51.980;5.734;2023-12-20T00:39:50;101443.69;;;5.16;100.00
48790;BME280;41718;51.980;5.734;2023-12-20T00:44:53;101443.97;;;5.10;100.00
48790;BME280;41718;51.980;5.734;2023-12-20T00:50:00;101446.56;;;5.10;100.00
48790;BME280;41718;51.980;5.734;2023-12-20T00:55:03;101449.66;;;4.99;100.00
48790;BME280;41718;51.980;5.734;2023-12-20T01:00:08;101438.31;;;5.01;100.00
48790;BME280;41718;51.980;5.734;2023-12-20T01:05:12;101446.69;;;4.88;100.00
48790;BME280;41718;51.980;5.734;2023-12-20T01:10:20;101440.19;;;4.97;100.00
48790;BME280;41718;51.980;5.734;2023-12-20T01:15:24;101426.91;;;5.02;100.00
48790;BME280;41718;51.980;5.734;2023-12-20T01:20:26;101446.47;;;4.93;100.00
48790;BME280;41718;51.980;5.734;2023-12-20T01:25:27;101437.81;;;4.92;100.00
48790;BME280;41718;51.980;5.734;2023-12-20T01:30:29;101437.03;;;4.90;100.00
48790;BME280;41718;51.980;5.734;2023-12-20T01:35:31;101439.28;;;4.79;100.00
48790;BME280;41718;51.980;5.734;2023-12-20T01:40:33;101446.97;;;4.82;100.00
48790;BME280;41718;51.980;5.734;2023-12-20T01:45:36;101447.31;;;4.75;100.00
48790;BME280;41718;51.980;5.734;2023-12-20T01:50:38;101451.56;;;4.77;100.00
48790;BME280;41718;51.980;5.734;2023-12-20T01:55:40;101462.50;;;4.85;100.00
48790;BME280;41718;51.980;5.734;2023-12-20T02:00:42;101451.63;;;4.76;100.00
48790;BME280;41718;51.980;5.734;2023-12-20T02:05:48;101455.56;;;4.84;100.00
48790;BME280;41718;51.980;5.734;2023-12-20T02:10:56;101464.63;;;4.77;100.00
48790;BME280;41718;51.980;5.734;2023-12-20T02:16:01;101463.19;;;4.90;100.00
48790;BME280;41718;51.980;5.734;2023-12-20T02:21:16;101451.50;;;4.97;100.00
48790;BME280;41718;51.980;5.734;2023-12-20T02:26:31;101440.75;;;4.85;100.00
48790;BME280;41718;51.980;5.734;2023-12-20T02:31:38;101437.88;;;4.91;100.00
48790;BME280;41718;51.980;5.734;2023-12-20T02:36:40;101426.78;;;5.05;100.00
48790;BME280;41718;51.980;5.734;2023-12-20T02:41:44;101425.88;;;5.06;100.00
48790;BME280;41718;51.980;5.734;2023-12-20T02:46:45;101428.19;;;5.12;100.00
48790;BME280;41718;51.980;5.734;2023-12-20T02:51:48;101426.22;;;5.17;100.00
48790;BME280;41718;51.980;5.734;2023-12-20T02:56:56;101428.06;;;5.15;100.00
48790;BME280;41718;51.980;5.734;2023-12-20T03:02:13;101412.09;;;5.02;100.00
48790;BME280;41718;51.980;5.734;2023-12-20T03:07:15;101409.97;;;5.10;100.00
48790;BME280;41718;51.980;5.734;2023-12-20T03:12:23;101408.50;;;5.05;100.00
48790;BME280;41718;51.980;5.734;2023-12-20T03:17:37;101401.94;;;4.96;100.00
48790;BME280;41718;51.980;5.734;2023-12-20T03:22:44;101391.88;;;4.87;100.00
48790;BME280;41718;51.980;5.734;2023-12-20T03:27:46;101404.03;;;5.07;100.00
48790;BME280;41718;51.980;5.734;2023-12-20T03:32:48;101397.19;;;5.04;100.00
48790;BME280;41718;51.980;5.734;2023-12-20T03:37:50;101398.81;;;5.07;100.00
48790;BME280;41718;51.980;5.734;2023-12-20T03:42:54;101382.13;;;5.09;100.00
48790;BME280;41718;51.980;5.734;2023-12-20T03:47:58;101388.06;;;5.13;100.00
48790;BME280;41718;51.980;5.734;2023-12-20T03:53:03;101391.59;;;5.12;100.00
48790;BME280;41718;51.980;5.734;2023-12-20T03:58:05;101392.25;;;5.17;100.00
48790;BME280;41718;51.980;5.734;2023-12-20T04:03:07;101397.00;;;5.26;100.00
48790;BME280;41718;51.980;5.734;2023-12-20T04:08:17;101390.25;;;5.22;100.00
48790;BME280;41718;51.980;5.734;2023-12-20T04:13:22;101382.88;;;5.30;100.00
48790;BME280;41718;51.980;5.734;2023-12-20T04:18:26;101388.81;;;5.33;100.00
48790;BME280;41718;51.980;5.734;2023-12-20T04:23:30;101388.97;;;5.30;100.00
48790;BME280;41718;51.980;5.734;2023-12-20T04:28:31;101388.25;;;5.45;100.00
48790;BME280;41718;51.980;5.734;2023-12-20T04:33:35;101392.53;;;5.46;100.00
48790;BME280;41718;51.980;5.734;2023-12-20T04:38:37;101392.53;;;5.46;100.00
48790;BME280;41718;51.980;5.734;2023-12-20T04:43:39;101391.94;;;5.58;100.00
48790;BME280;41718;51.980;5.734;2023-12-20T04:48:43;101396.25;;;5.59;100.00
48790;BME280;41718;51.980;5.734;2023-12-20T04:53:45;101388.66;;;5.72;100.00
48790;BME280;41718;51.980;5.734;2023-12-20T04:58:47;101384.72;;;5.63;100.00
48790;BME280;41718;51.980;5.734;2023-12-20T05:03:49;101377.44;;;5.70;100.00
48790;BME280;41718;51.980;5.734;2023-12-20T05:08:51;101372.75;;;5.76;100.00
48790;BME280;41718;51.980;5.734;2023-12-20T05:13:53;101371.81;;;5.77;100.00
48790;BME280;41718;51.980;5.734;2023-12-20T05:18:55;101374.41;;;5.77;100.00
48790;BME280;41718;51.980;5.734;2023-12-20T05:23:58;101361.69;;;5.89;99.70
48790;BME280;41718;51.980;5.734;2023-12-20T05:28:59;101372.94;;;5.91;100.00
48790;BME280;41718;51.980;5.734;2023-12-20T05:34:01;101371.75;;;5.96;99.32
48790;BME280;41718;51.980;5.734;2023-12-20T05:39:04;101370.09;;;5.95;99.70
48790;BME280;41718;51.980;5.734;2023-12-20T05:44:06;101371.44;;;6.02;98.98
48790;BME280;41718;51.980;5.734;2023-12-20T05:49:08;101379.78;;;5.93;100.00
48790;BME280;41718;51.980;5.734;2023-12-20T05:54:10;101376.31;;;5.93;100.00
48790;BME280;41718;51.980;5.734;2023-12-20T05:59:12;101374.28;;;5.98;99.49
48790;BME280;41718;51.980;5.734;2023-12-20T06:04:14;101373.84;;;6.07;98.32
48790;BME280;41718;51.980;5.734;2023-12-20T06:09:16;101380.00;;;6.06;98.62
48790;BME280;41718;51.980;5.734;2023-12-20T06:14:18;101380.63;;;6.11;97.60
48790;BME280;41718;51.980;5.734;2023-12-20T06:19:20;101383.47;;;6.06;98.29
48790;BME280;41718;51.980;5.734;2023-12-20T06:24:23;101370.13;;;6.11;97.96
48790;BME280;41718;51.980;5.734;2023-12-20T06:29:29;101368.28;;;6.13;97.46
48790;BME280;41718;51.980;5.734;2023-12-20T06:34:32;101365.59;;;6.14;96.97
48790;BME280;41718;51.980;5.734;2023-12-20T06:39:35;101369.69;;;6.20;97.38
48790;BME280;41718;51.980;5.734;2023-12-20T06:44:37;101359.13;;;6.21;96.71
48790;BME280;41718;51.980;5.734;2023-12-20T06:49:39;101362.72;;;6.19;97.10
48790;BME280;41718;51.980;5.734;2023-12-20T06:54:41;101362.66;;;6.20;97.02
48790;BME280;41718;51.980;5.734;2023-12-20T06:59:43;101355.78;;;6.18;96.54
48790;BME280;41718;51.980;5.734;2023-12-20T07:04:46;101347.94;;;6.18;97.12
48790;BME280;41718;51.980;5.734;2023-12-20T07:09:48;101348.09;;;6.15;98.31
48790;BME280;41718;51.980;5.734;2023-12-20T07:14:50;101350.84;;;6.29;96.23
48790;BME280;41718;51.980;5.734;2023-12-20T07:19:52;101349.41;;;6.23;96.75
48790;BME280;41718;51.980;5.734;2023-12-20T07:24:54;101345.78;;;6.26;96.65
48790;BME280;41718;51.980;5.734;2023-12-20T07:29:56;101351.94;;;6.25;97.84
48790;BME280;41718;51.980;5.734;2023-12-20T07:34:59;101349.09;;;6.29;97.29
48790;BME280;41718;51.980;5.734;2023-12-20T07:40:01;101333.38;;;6.29;97.37
48790;BME280;41718;51.980;5.734;2023-12-20T07:45:05;101330.06;;;6.26;97.56
48790;BME280;41718;51.980;5.734;2023-12-20T07:50:07;101337.66;;;6.30;97.91
48790;BME280;41718;51.980;5.734;2023-12-20T07:55:10;101340.66;;;6.40;96.22
48790;BME280;41718;51.980;5.734;2023-12-20T08:00:12;101353.91;;;6.37;97.40
48790;BME280;41718;51.980;5.734;2023-12-20T08:05:14;101360.53;;;6.44;96.43
48790;BME280;41718;51.980;5.734;2023-12-20T08:10:19;101356.59;;;6.52;96.05
48790;BME280;41718;51.980;5.734;2023-12-20T08:15:21;101355.06;;;6.48;96.25
48790;BME280;41718;51.980;5.734;2023-12-20T08:20:23;101367.13;;;6.51;97.01
48790;BME280;41718;51.980;5.734;2023-12-20T08:25:40;101354.31;;;6.62;95.94
48790;BME280;41718;51.980;5.734;2023-12-20T08:30:42;101354.41;;;6.60;95.52
48790;BME280;41718;51.980;5.734;2023-12-20T08:35:44;101351.41;;;6.51;96.96
48790;BME280;41718;51.980;5.734;2023-12-20T08:40:46;101345.50;;;6.63;95.95
48790;BME280;41718;51.980;5.734;2023-12-20T08:45:49;101343.91;;;6.60;95.72
48790;BME280;41718;51.980;5.734;2023-12-20T08:50:51;101344.25;;;6.70;95.51
48790;BME280;41718;51.980;5.734;2023-12-20T08:55:54;101338.88;;;6.73;95.64
48790;BME280;41718;51.980;5.734;2023-12-20T09:00:55;101340.78;;;6.70;96.49
48790;BME280;41718;51.980;5.734;2023-12-20T09:05:59;101340.78;;;6.70;96.87
48790;BME280;41718;51.980;5.734;2023-12-20T09:11:01;101340.03;;;6.68;97.01
48790;BME280;41718;51.980;5.734;2023-12-20T09:16:04;101348.13;;;6.63;97.91
48790;BME280;41718;51.980;5.734;2023-12-20T09:21:06;101335.34;;;6.57;98.86
48790;BME280;41718;51.980;5.734;2023-12-20T09:26:08;101332.91;;;6.54;98.96
48790;BME280;41718;51.980;5.734;2023-12-20T09:31:10;101337.47;;;6.50;99.78
48790;BME280;41718;51.980;5.734;2023-12-20T09:36:12;101337.72;;;6.46;100.00
48790;BME280;41718;51.980;5.734;2023-12-20T09:41:15;101341.34;;;6.43;100.00
48790;BME280;41718;51.980;5.734;2023-12-20T09:46:20;101340.94;;;6.51;100.00
48790;BME280;41718;51.980;5.734;2023-12-20T09:51:28;101338.91;;;6.56;100.00
48790;BME280;41718;51.980;5.734;2023-12-20T09:56:30;101338.84;;;6.57;100.00
48790;BME280;41718;51.980;5.734;2023-12-20T10:01:34;101343.34;;;6.71;99.18
48790;BME280;41718;51.980;5.734;2023-12-20T10:06:43;101351.88;;;6.75;99.27
48790;BME280;41718;51.980;5.734;2023-12-20T10:11:46;101356.88;;;6.79;99.52
48790;BME280;41718;51.980;5.734;2023-12-20T10:16:48;101352.91;;;6.88;98.33
48790;BME280;41718;51.980;5.734;2023-12-20T10:21:51;101371.19;;;6.89;98.87
48790;BME280;41718;51.980;5.734;2023-12-20T10:27:04;101358.59;;;6.96;98.17
48790;BME280;41718;51.980;5.734;2023-12-20T10:32:36;101350.63;;;6.97;98.44
48790;BME280;41718;51.980;5.734;2023-12-20T10:37:38;101334.91;;;6.97;99.34
48790;BME280;41718;51.980;5.734;2023-12-20T10:42:40;101339.81;;;7.03;98.53
48790;BME280;41718;51.980;5.734;2023-12-20T10:47:47;101336.94;;;7.08;98.52
48790;BME280;41718;51.980;5.734;2023-12-20T10:52:51;101337.25;;;7.17;97.75
48790;BME280;41718;51.980;5.734;2023-12-20T10:58:24;101328.78;;;7.28;97.58
48790;BME280;41718;51.980;5.734;2023-12-20T11:03:28;101316.69;;;7.25;97.51
48790;BME280;41718;51.980;5.734;2023-12-20T11:08:41;101308.69;;;7.42;96.92
48790;BME280;41718;51.980;5.734;2023-12-20T11:13:59;101309.50;;;7.59;96.22
48790;BME280;41718;51.980;5.734;2023-12-20T11:19:06;101305.66;;;7.64;95.79
48790;BME280;41718;51.980;5.734;2023-12-20T11:24:10;101299.41;;;7.67;95.51
48790;BME280;41718;51.980;5.734;2023-12-20T11:29:35;101293.13;;;7.69;94.87
48790;BME280;41718;51.980;5.734;2023-12-20T11:34:37;101288.81;;;7.82;94.07
48790;BME280;41718;51.980;5.734;2023-12-20T11:39:39;101294.56;;;7.89;91.97
48790;BME280;41718;51.980;5.734;2023-12-20T11:44:42;101270.44;;;7.82;93.40
48790;BME280;41718;51.980;5.734;2023-12-20T11:49:46;101270.56;;;7.95;91.37
48790;BME280;41718;51.980;5.734;2023-12-20T11:54:48;101276.28;;;8.15;90.17
48790;BME280;41718;51.980;5.734;2023-12-20T11:59:50;101272.63;;;8.04;91.45
48790;BME280;41718;51.980;5.734;2023-12-20T12:04:52;101261.84;;;8.22;89.15
48790;BME280;41718;51.980;5.734;2023-12-20T12:09:55;101264.09;;;8.14;90.43
48790;BME280;41718;51.980;5.734;2023-12-20T12:14:57;101255.41;;;8.28;89.04
48790;BME280;41718;51.980;5.734;2023-12-20T12:20:07;101257.75;;;8.33;89.25
48790;BME280;41718;51.980;5.734;2023-12-20T12:25:12;101257.28;;;8.26;90.92
48790;BME280;41718;51.980;5.734;2023-12-20T12:30:16;101255.00;;;8.20;93.25
48790;BME280;41718;51.980;5.734;2023-12-20T12:35:20;101246.25;;;8.19;90.53
48790;BME280;41718;51.980;5.734;2023-12-20T12:40:23;101235.00;;;8.17;90.85
48790;BME280;41718;51.980;5.734;2023-12-20T12:45:25;101215.50;;;8.07;92.35
48790;BME280;41718;51.980;5.734;2023-12-20T12:50:28;101222.53;;;8.07;93.08
48790;BME280;41718;51.980;5.734;2023-12-20T12:55:31;101230.69;;;8.16;91.83
48790;BME280;41718;51.980;5.734;2023-12-20T13:00:33;101215.09;;;8.13;92.24
48790;BME280;41718;51.980;5.734;2023-12-20T13:05:36;101208.06;;;8.14;92.31
48790;BME280;41718;51.980;5.734;2023-12-20T13:10:42;101192.69;;;8.22;91.60
48790;BME280;41718;51.980;5.734;2023-12-20T13:15:44;101181.91;;;8.27;90.37
48790;BME280;41718;51.980;5.734;2023-12-20T13:20:54;101179.53;;;8.22;91.28
48790;BME280;41718;51.980;5.734;2023-12-20T13:25:56;101164.53;;;8.24;91.48
48790;BME280;41718;51.980;5.734;2023-12-20T13:30:58;101167.16;;;8.24;91.53
48790;BME280;41718;51.980;5.734;2023-12-20T13:36:02;101163.19;;;8.17;91.97
48790;BME280;41718;51.980;5.734;2023-12-20T13:41:08;101157.19;;;8.15;92.32
48790;BME280;41718;51.980;5.734;2023-12-20T13:46:10;101155.81;;;8.09;92.66
48790;BME280;41718;51.980;5.734;2023-12-20T13:51:12;101140.31;;;8.19;91.71
48790;BME280;41718;51.980;5.734;2023-12-20T13:56:15;101133.91;;;8.23;91.26
48790;BME280;41718;51.980;5.734;2023-12-20T14:01:17;101133.16;;;8.21;90.76
48790;BME280;41718;51.980;5.734;2023-12-20T14:06:19;101144.34;;;8.24;90.32
48790;BME280;41718;51.980;5.734;2023-12-20T14:11:26;101132.63;;;8.16;91.34
48790;BME280;41718;51.980;5.734;2023-12-20T14:16:28;101138.16;;;8.25;90.45
48790;BME280;41718;51.980;5.734;2023-12-20T14:21:31;101140.13;;;8.22;89.92
48790;BME280;41718;51.980;5.734;2023-12-20T14:26:33;101145.66;;;8.17;90.62
48790;BME280;41718;51.980;5.734;2023-12-20T14:31:35;101156.00;;;8.20;89.91
48790;BME280;41718;51.980;5.734;2023-12-20T14:36:38;101155.44;;;8.15;90.38
48790;BME280;41718;51.980;5.734;2023-12-20T14:41:49;101149.63;;;8.10;91.80
48790;BME280;41718;51.980;5.734;2023-12-20T14:46:57;101152.69;;;8.17;91.04
48790;BME280;41718;51.980;5.734;2023-12-20T14:51:59;101133.38;;;8.18;90.62
48790;BME280;41718;51.980;5.734;2023-12-20T14:57:01;101148.19;;;8.19;90.68
48790;BME280;41718;51.980;5.734;2023-12-20T15:02:06;101141.66;;;8.12;92.20
48790;BME280;41718;51.980;5.734;2023-12-20T15:07:09;101147.06;;;8.09;91.96
48790;BME280;41718;51.980;5.734;2023-12-20T15:12:11;101145.31;;;8.09;91.78
48790;BME280;41718;51.980;5.734;2023-12-20T15:17:13;101138.75;;;8.02;92.29
48790;BME280;41718;51.980;5.734;2023-12-20T15:22:16;101143.16;;;8.02;92.84
48790;BME280;41718;51.980;5.734;2023-12-20T15:27:18;101122.94;;;7.90;93.76
48790;BME280;41718;51.980;5.734;2023-12-20T15:32:23;101123.56;;;7.93;93.10
48790;BME280;41718;51.980;5.734;2023-12-20T15:37:25;101123.66;;;7.92;93.68
48790;BME280;41718;51.980;5.734;2023-12-20T15:42:32;101124.13;;;7.84;94.83
48790;BME280;41718;51.980;5.734;2023-12-20T15:47:35;101114.84;;;7.79;95.85
48790;BME280;41718;51.980;5.734;2023-12-20T15:52:40;101105.50;;;7.75;96.35
48790;BME280;41718;51.980;5.734;2023-12-20T15:57:45;101091.16;;;7.66;97.87
48790;BME280;41718;51.980;5.734;2023-12-20T16:02:55;101092.16;;;7.64;97.97
48790;BME280;41718;51.980;5.734;2023-12-20T16:07:57;101097.63;;;7.61;98.38
48790;BME280;41718;51.980;5.734;2023-12-20T16:13:02;101100.53;;;7.56;99.15
48790;BME280;41718;51.980;5.734;2023-12-20T16:18:04;101070.91;;;7.54;99.54
48790;BME280;41718;51.980;5.734;2023-12-20T16:23:11;101069.22;;;7.53;100.00
48790;BME280;41718;51.980;5.734;2023-12-20T16:28:19;101049.16;;;7.52;99.56
48790;BME280;41718;51.980;5.734;2023-12-20T16:33:30;101060.41;;;7.54;99.95
48790;BME280;41718;51.980;5.734;2023-12-20T16:38:35;101039.63;;;7.51;100.00
48790;BME280;41718;51.980;5.734;2023-12-20T16:43:37;101037.44;;;7.58;99.84
48790;BME280;41718;51.980;5.734;2023-12-20T16:49:29;101016.75;;;7.53;100.00
48790;BME280;41718;51.980;5.734;2023-12-20T16:55:08;101022.44;;;7.60;99.36
48790;BME280;41718;51.980;5.734;2023-12-20T17:00:11;101007.53;;;7.60;99.85
48790;BME280;41718;51.980;5.734;2023-12-20T17:05:23;100994.75;;;7.68;99.11
48790;BME280;41718;51.980;5.734;2023-12-20T17:10:25;100987.84;;;7.67;99.49
48790;BME280;41718;51.980;5.734;2023-12-20T17:15:27;100981.00;;;7.65;99.58
48790;BME280;41718;51.980;5.734;2023-12-20T17:20:40;100978.38;;;7.65;100.00
48790;BME280;41718;51.980;5.734;2023-12-20T17:25:50;100964.16;;;7.55;100.00
48790;BME280;41718;51.980;5.734;2023-12-20T17:30:55;100957.41;;;7.51;100.00
48790;BME280;41718;51.980;5.734;2023-12-20T17:36:01;100970.41;;;7.52;100.00
48790;BME280;41718;51.980;5.734;2023-12-20T17:41:12;100957.41;;;7.51;100.00
48790;BME280;41718;51.980;5.734;2023-12-20T17:46:17;100947.75;;;7.51;100.00
48790;BME280;41718;51.980;5.734;2023-12-20T17:51:29;100938.00;;;7.53;100.00
48790;BME280;41718;51.980;5.734;2023-12-20T17:56:31;100942.84;;;7.59;100.00
48790;BME280;41718;51.980;5.734;2023-12-20T18:01:33;100942.75;;;7.61;100.00
48790;BME280;41718;51.980;5.734;2023-12-20T18:06:36;100930.38;;;7.63;100.00
48790;BME280;41718;51.980;5.734;2023-12-20T18:11:38;100923.34;;;7.63;100.00
48790;BME280;41718;51.980;5.734;2023-12-20T18:16:43;100914.50;;;7.64;100.00
48790;BME280;41718;51.980;5.734;2023-12-20T18:21:45;100913.25;;;7.70;100.00
48790;BME280;41718;51.980;5.734;2023-12-20T18:27:10;100901.38;;;7.64;100.00
48790;BME280;41718;51.980;5.734;2023-12-20T18:32:20;100909.72;;;7.71;100.00
48790;BME280;41718;51.980;5.734;2023-12-20T18:37:25;100891.63;;;7.66;100.00
48790;BME280;41718;51.980;5.734;2023-12-20T18:42:45;100888.16;;;7.66;100.00
48790;BME280;41718;51.980;5.734;2023-12-20T18:48:32;100885.53;;;7.66;100.00
48790;BME280;41718;51.980;5.734;2023-12-20T18:54:15;100857.50;;;7.66;100.00
48790;BME280;41718;51.980;5.734;2023-12-20T18:59:43;100850.38;;;7.68;100.00
48790;BME280;41718;51.980;5.734;2023-12-20T19:04:45;100858.88;;;7.72;100.00
48790;BME280;41718;51.980;5.734;2023-12-20T19:10:06;100853.00;;;7.68;100.00
48790;BME280;41718;51.980;5.734;2023-12-20T19:15:11;100829.25;;;7.70;100.00
48790;BME280;41718;51.980;5.734;2023-12-20T19:20:16;100818.69;;;7.71;100.00
48790;BME280;41718;51.980;5.734;2023-12-20T19:25:39;100827.81;;;7.78;100.00
48790;BME280;41718;51.980;5.734;2023-12-20T19:30:54;100817.31;;;7.78;100.00
48790;BME280;41718;51.980;5.734;2023-12-20T19:35:56;100808.63;;;7.78;100.00
48790;BME280;41718;51.980;5.734;2023-12-20T19:41:02;100793.25;;;7.84;100.00
48790;BME280;41718;51.980;5.734;2023-12-20T19:46:04;100790.63;;;7.84;100.00
48790;BME280;41718;51.980;5.734;2023-12-20T19:51:11;100799.47;;;7.83;100.00
48790;BME280;41718;51.980;5.734;2023-12-20T19:56:19;100798.22;;;7.89;100.00
48790;BME280;41718;51.980;5.734;2023-12-20T20:01:27;100784.47;;;7.85;100.00
48790;BME280;41718;51.980;5.734;2023-12-20T20:06:34;100774.69;;;7.87;100.00
48790;BME280;41718;51.980;5.734;2023-12-20T20:11:39;100762.28;;;7.89;100.00
48790;BME280;41718;51.980;5.734;2023-12-20T20:16:43;100777.19;;;7.89;100.00
48790;BME280;41718;51.980;5.734;2023-12-20T20:21:54;100786.13;;;7.86;100.00
48790;BME280;41718;51.980;5.734;2023-12-20T20:27:03;100779.09;;;7.87;100.00
48790;BME280;41718;51.980;5.734;2023-12-20T20:32:06;100776.34;;;7.88;100.00
48790;BME280;41718;51.980;5.734;2023-12-20T20:37:24;100790.44;;;7.87;100.00
48790;BME280;41718;51.980;5.734;2023-12-20T20:42:29;100787.94;;;7.86;100.00
48790;BME280;41718;51.980;5.734;2023-12-20T20:47:32;100782.56;;;7.87;100.00
48790;BME280;41718;51.980;5.734;2023-12-20T20:52:36;100770.38;;;7.86;100.00
48790;BME280;41718;51.980;5.734;2023-12-20T20:57:41;100759.88;;;7.86;100.00
48790;BME280;41718;51.980;5.734;2023-12-20T21:02:52;100748.13;;;7.92;100.00
48790;BME280;41718;51.980;5.734;2023-12-20T21:07:59;100742.66;;;7.95;100.00
48790;BME280;41718;51.980;5.734;2023-12-20T21:13:09;100745.38;;;7.93;100.00
48790;BME280;41718;51.980;5.734;2023-12-20T21:18:14;100732.38;;;7.92;100.00
48790;BME280;41718;51.980;5.734;2023-12-20T21:23:17;100719.13;;;7.93;100.00
48790;BME280;41718;51.980;5.734;2023-12-20T21:28:24;100722.47;;;7.95;100.00
48790;BME280;41718;51.980;5.734;2023-12-20T21:33:29;100724.06;;;7.98;100.00
48790;BME280;41718;51.980;5.734;2023-12-20T21:38:35;100708.19;;;7.99;100.00
48790;BME280;41718;51.980;5.734;2023-12-20T21:43:40;100692.22;;;8.02;100.00
48790;BME280;41718;51.980;5.734;2023-12-20T21:48:44;100693.06;;;8.03;100.00
48790;BME280;41718;51.980;5.734;2023-12-20T21:53:50;100686.25;;;8.00;100.00
48790;BME280;41718;51.980;5.734;2023-12-20T21:58:52;100684.25;;;8.04;100.00
48790;BME280;41718;51.980;5.734;2023-12-20T22:03:56;100689.78;;;8.12;100.00
48790;BME280;41718;51.980;5.734;2023-12-20T22:09:01;100697.25;;;8.05;100.00
48790;BME280;41718;51.980;5.734;2023-12-20T22:14:05;100696.94;;;8.10;100.00
48790;BME280;41718;51.980;5.734;2023-12-20T22:19:18;100682.41;;;8.17;100.00
48790;BME280;41718;51.980;5.734;2023-12-20T22:24:21;100677.28;;;8.15;100.00
48790;BME280;41718;51.980;5.734;2023-12-20T22:29:25;100687.78;;;8.15;100.00
48790;BME280;41718;51.980;5.734;2023-12-20T22:34:34;100668.47;;;8.16;100.00
48790;BME280;41718;51.980;5.734;2023-12-20T22:39:37;100669.28;;;8.17;100.00
48790;BME280;41718;51.980;5.734;2023-12-20T22:44:41;100658.88;;;8.15;100.00
48790;BME280;41718;51.980;5.734;2023-12-20T22:49:43;100649.22;;;8.16;100.00
48790;BME280;41718;51.980;5.734;2023-12-20T22:54:46;100648.16;;;8.18;100.00
48790;BME280;41718;51.980;5.734;2023-12-20T23:00:00;100638.47;;;8.19;100.00
48790;BME280;41718;51.980;5.734;2023-12-20T23:05:05;100644.38;;;8.22;100.00
48790;BME280;41718;51.980;5.734;2023-12-20T23:10:10;100639.31;;;8.19;100.00
48790;BME280;41718;51.980;5.734;2023-12-20T23:15:15;100632.84;;;8.25;100.00
48790;BME280;41718;51.980;5.734;2023-12-20T23:20:20;100622.34;;;8.25;100.00
48790;BME280;41718;51.980;5.734;2023-12-20T23:25:22;100604.75;;;8.25;100.00
48790;BME280;41718;51.980;5.734;2023-12-20T23:30:35;100614.94;;;8.30;100.00
48790;BME280;41718;51.980;5.734;2023-12-20T23:35:39;100613.16;;;8.31;100.00
48790;BME280;41718;51.980;5.734;2023-12-20T23:40:41;100582.47;;;8.31;100.00
48790;BME280;41718;51.980;5.734;2023-12-20T23:45:45;100562.38;;;8.30;100.00
48790;BME280;41718;51.980;5.734;2023-12-20T23:50:47;100555.13;;;8.34;100.00
48790;BME280;41718;51.980;5.734;2023-12-20T23:55:51;100557.03;;;8.32;100.00
